Time;durP1;ratioP1;P1;durP2;ratioP2;P2;SDS_P1;SDS_P2;PMS_P1;PMS_P2;Temp;Humidity;BMP_temperature;BMP_pressure;BME280_temperature;BME280_humidity;BME280_pressure;Samples;Min_cycle;Max_cycle;Signal;HPM_P1;HPM_P2
2022/11/30 00:01:16;;;;;;;41.65;35.88;;;7.60;99.90;;;;;;5102969;27;20055;-77
2022/11/30 00:03:42;;;;;;;42.20;35.88;;;7.60;99.90;;;;;;5103450;27;20399;-77
2022/11/30 00:06:11;;;;;;;38.10;32.10;;;7.60;99.90;;;;;;5098771;27;20050;-77
2022/11/30 00:08:37;;;;;;;37.50;33.05;;;7.60;99.90;;;;;;5119040;27;20047;-77
2022/11/30 00:11:14;;;;;;;41.25;35.13;;;7.60;99.90;;;;;;5118253;27;20054;-77
2022/11/30 00:13:40;;;;;;;37.83;33.65;;;7.60;99.90;;;;;;5120378;27;20515;-78
2022/11/30 00:16:07;;;;;;;37.80;31.95;;;7.60;99.90;;;;;;5120259;27;20042;-77
2022/11/30 00:18:33;;;;;;;41.67;36.22;;;7.70;99.90;;;;;;5100789;27;20062;-77
2022/11/30 00:21:04;;;;;;;37.38;33.38;;;7.70;99.90;;;;;;5121181;27;20564;-78
2022/11/30 00:23:34;;;;;;;40.25;33.92;;;7.60;99.90;;;;;;5118227;27;20553;-77
2022/11/30 00:26:01;;;;;;;38.28;32.67;;;7.60;99.90;;;;;;5148713;27;20095;-77
2022/11/30 00:28:30;;;;;;;36.50;32.10;;;7.60;99.90;;;;;;5115840;27;20058;-77
2022/11/30 00:30:58;;;;;;;37.80;31.30;;;7.50;99.90;;;;;;5118770;27;20512;-78
2022/11/30 00:33:24;;;;;;;39.40;34.55;;;7.30;99.90;;;;;;5083802;27;20134;-77
2022/11/30 00:35:57;;;;;;;38.42;33.50;;;7.30;99.90;;;;;;5101205;27;20138;-78
2022/11/30 00:38:24;;;;;;;38.28;33.65;;;7.30;99.90;;;;;;5101952;27;20055;-77
2022/11/30 00:40:50;;;;;;;41.15;35.22;;;7.20;99.90;;;;;;5118562;27;20046;-78
2022/11/30 00:43:18;;;;;;;56.13;41.47;;;7.10;99.90;;;;;;5099057;27;20136;-77
2022/11/30 00:45:44;;;;;;;43.08;35.97;;;7.00;99.90;;;;;;5086454;27;20207;-78
2022/11/30 00:48:10;;;;;;;43.78;35.22;;;7.00;99.90;;;;;;5083682;27;20100;-77
2022/11/30 00:50:35;;;;;;;47.13;37.00;;;6.90;99.90;;;;;;5103603;27;20050;-77
2022/11/30 00:53:01;;;;;;;42.30;33.95;;;6.90;99.90;;;;;;5103875;27;20593;-77
2022/11/30 00:55:27;;;;;;;65.28;43.83;;;6.80;99.90;;;;;;5117562;27;20088;-77
2022/11/30 00:57:53;;;;;;;69.80;45.90;;;6.80;99.90;;;;;;5103108;27;20845;-78
2022/11/30 01:00:19;;;;;;;67.85;45.30;;;6.80;99.90;;;;;;5099161;27;20323;-78
2022/11/30 01:02:45;;;;;;;72.38;43.85;;;6.70;99.90;;;;;;5101281;27;20063;-78
2022/11/30 01:05:10;;;;;;;62.20;41.70;;;6.60;99.90;;;;;;5113998;27;20121;-77
2022/11/30 01:07:36;;;;;;;73.13;43.67;;;6.60;99.90;;;;;;5102367;27;20758;-77
2022/11/30 01:10:02;;;;;;;80.03;46.45;;;6.60;99.90;;;;;;5118558;27;20051;-77
2022/11/30 01:12:31;;;;;;;65.40;44.75;;;6.60;99.90;;;;;;5118056;27;20055;-78
2022/11/30 01:14:56;;;;;;;53.20;41.10;;;6.60;99.90;;;;;;5100803;27;20525;-78
2022/11/30 01:17:22;;;;;;;62.45;44.35;;;6.50;99.90;;;;;;5118379;27;20096;-77
2022/11/30 01:19:48;;;;;;;72.85;47.00;;;6.60;99.90;;;;;;5085485;27;20031;-77
2022/11/30 01:22:13;;;;;;;52.70;40.78;;;6.60;99.90;;;;;;5115763;27;20039;-78
2022/11/30 01:24:39;;;;;;;66.50;46.70;;;6.60;99.90;;;;;;5120300;27;20043;-78
2022/11/30 01:27:08;;;;;;;55.63;42.80;;;6.60;99.90;;;;;;5119310;27;20524;-77
2022/11/30 01:29:34;;;;;;;59.10;44.45;;;6.60;99.90;;;;;;5101567;27;20035;-77
2022/11/30 01:32:00;;;;;;;68.10;48.83;;;6.60;99.90;;;;;;5112723;27;20393;-78
2022/11/30 01:34:25;;;;;;;71.10;48.67;;;6.60;99.90;;;;;;5135155;27;20117;-78
2022/11/30 01:36:51;;;;;;;78.35;51.22;;;6.60;99.90;;;;;;5084174;27;20039;-79
2022/11/30 01:39:17;;;;;;;51.08;42.08;;;6.60;99.90;;;;;;5081732;27;20080;-78
2022/11/30 01:41:43;;;;;;;66.75;48.55;;;6.60;99.90;;;;;;5093843;27;20063;-77
2022/11/30 01:44:15;;;;;;;74.25;49.60;;;6.60;99.90;;;;;;5112249;27;20138;-77
2022/11/30 01:47:01;;;;;;;85.35;52.10;;;6.60;99.90;;;;;;5128119;27;20083;-78
2022/11/30 01:49:48;;;;;;;59.80;44.20;;;6.60;99.90;;;;;;5110394;27;20494;-77
2022/11/30 01:52:18;;;;;;;66.43;48.28;;;6.60;99.90;;;;;;5116778;27;20027;-71
2022/11/30 01:54:50;;;;;;;75.38;52.03;;;6.60;99.90;;;;;;5148246;27;20089;-72
2022/11/30 01:57:39;;;;;;;73.13;49.58;;;6.60;99.90;;;;;;5115194;27;20892;-72
2022/11/30 02:00:09;;;;;;;92.30;56.45;;;6.60;99.90;;;;;;5110846;27;20387;-71
2022/11/30 02:02:58;;;;;;;64.05;48.47;;;6.60;99.90;;;;;;5117759;27;20047;-72
2022/11/30 02:05:25;;;;;;;77.00;53.15;;;6.60;99.90;;;;;;5112056;27;20502;-72
2022/11/30 02:07:51;;;;;;;71.65;50.33;;;6.60;99.90;;;;;;5115499;27;20045;-71
2022/11/30 02:10:25;;;;;;;70.25;49.70;;;6.60;99.90;;;;;;5144904;27;20746;-72
2022/11/30 02:13:30;;;;;;;72.45;52.53;;;6.60;99.90;;;;;;5099262;27;20047;-71
2022/11/30 02:16:11;;;;;;;65.60;48.95;;;6.60;99.90;;;;;;5100443;27;20055;-72
2022/11/30 02:18:39;;;;;;;70.00;51.58;;;6.60;99.90;;;;;;5099144;27;20711;-72
2022/11/30 02:21:14;;;;;;;72.18;51.78;;;6.60;99.90;;;;;;5108542;27;20051;-72
2022/11/30 02:24:09;;;;;;;78.38;52.72;;;6.60;99.90;;;;;;5113229;27;20078;-72
2022/11/30 02:27:23;;;;;;;73.22;51.70;;;6.60;99.90;;;;;;5057999;27;20546;-72
2022/11/30 02:30:04;;;;;;;80.65;52.97;;;6.60;99.90;;;;;;5041084;27;20546;-72
2022/11/30 02:32:46;;;;;;;72.68;51.42;;;6.60;99.90;;;;;;5084290;27;20440;-72
2022/11/30 02:35:15;;;;;;;63.70;47.90;;;6.50;99.90;;;;;;5112845;27;20057;-72
2022/11/30 02:37:43;;;;;;;64.03;48.45;;;6.50;99.90;;;;;;5087324;27;20678;-72
2022/11/30 02:40:12;;;;;;;75.05;51.40;;;6.60;99.90;;;;;;5078954;27;20122;-72
2022/11/30 02:42:37;;;;;;;68.88;50.30;;;6.50;99.90;;;;;;5117672;27;20043;-72
2022/11/30 02:45:06;;;;;;;60.08;46.90;;;6.60;99.90;;;;;;5108450;27;20366;-72
2022/11/30 02:47:59;;;;;;;72.90;52.88;;;6.60;99.90;;;;;;5119224;27;20051;-72
2022/11/30 02:50:36;;;;;;;61.15;48.40;;;6.60;99.90;;;;;;5116198;27;20090;-72
2022/11/30 02:53:02;;;;;;;63.30;47.20;;;6.60;99.90;;;;;;5117231;27;20069;-72
2022/11/30 02:55:31;;;;;;;66.82;50.15;;;6.50;99.90;;;;;;5109168;27;20054;-72
2022/11/30 02:57:56;;;;;;;65.72;50.40;;;6.60;99.90;;;;;;5116232;27;20054;-72
2022/11/30 03:00:22;;;;;;;63.47;48.50;;;6.60;99.90;;;;;;5139759;27;20050;-72
2022/11/30 03:02:48;;;;;;;76.85;53.33;;;6.60;99.90;;;;;;5083053;28;20501;-71
2022/11/30 03:05:14;;;;;;;66.47;50.28;;;6.60;99.90;;;;;;5084340;28;20063;-71
2022/11/30 03:07:40;;;;;;;68.93;49.42;;;6.60;99.90;;;;;;5087192;28;20079;-72
2022/11/30 03:10:07;;;;;;;73.78;52.53;;;6.50;99.90;;;;;;5067600;28;20120;-71
2022/11/30 03:12:32;;;;;;;73.10;53.00;;;6.60;99.90;;;;;;5100780;28;20416;-71
2022/11/30 03:14:58;;;;;;;77.43;54.05;;;6.50;99.90;;;;;;5100606;28;20049;-71
2022/11/30 03:17:24;;;;;;;69.45;52.95;;;6.60;99.90;;;;;;5121071;27;20082;-72
2022/11/30 03:19:50;;;;;;;62.63;48.83;;;6.60;99.90;;;;;;5095539;27;20146;-72
2022/11/30 03:22:16;;;;;;;58.13;46.95;;;6.60;99.90;;;;;;5116534;27;20070;-72
2022/11/30 03:24:42;;;;;;;63.90;50.08;;;6.70;99.90;;;;;;5096216;27;20671;-72
2022/11/30 03:27:07;;;;;;;60.00;47.22;;;6.60;99.90;;;;;;5109948;27;20914;-72
2022/11/30 03:29:34;;;;;;;62.95;49.53;;;6.60;99.90;;;;;;5082913;28;20485;-71
2022/11/30 03:31:59;;;;;;;61.80;47.17;;;6.60;99.90;;;;;;5118062;27;20075;-72
2022/11/30 03:34:26;;;;;;;60.47;47.33;;;6.60;99.90;;;;;;5118438;27;20524;-71
2022/11/30 03:36:52;;;;;;;62.72;47.22;;;6.60;99.90;;;;;;5119240;27;20096;-72
2022/11/30 03:39:18;;;;;;;60.42;46.47;;;6.60;99.90;;;;;;5115177;28;20058;-72
2022/11/30 03:41:44;;;;;;;63.25;48.40;;;6.60;99.90;;;;;;5144636;27;20219;-72
2022/11/30 03:44:10;;;;;;;64.75;49.40;;;6.60;99.90;;;;;;5097313;28;20079;-71
2022/11/30 03:46:36;;;;;;;62.60;47.97;;;6.60;99.90;;;;;;5116179;27;20046;-72
2022/11/30 03:49:02;;;;;;;63.30;48.38;;;6.50;99.90;;;;;;5119607;27;20054;-72
2022/11/30 03:51:27;;;;;;;63.97;48.47;;;6.60;99.90;;;;;;5097368;28;20673;-72
2022/11/30 03:53:53;;;;;;;73.05;52.63;;;6.60;99.90;;;;;;5101780;27;20122;-72
2022/11/30 03:56:19;;;;;;;64.32;49.88;;;6.60;99.90;;;;;;5079298;28;20043;-71
2022/11/30 03:58:45;;;;;;;66.55;48.80;;;6.60;99.90;;;;;;5128662;27;20048;-72
2022/11/30 04:01:16;;;;;;;80.05;55.58;;;6.60;99.90;;;;;;5123606;27;20051;-72
2022/11/30 04:03:42;;;;;;;83.55;54.60;;;6.60;99.90;;;;;;5120399;27;20051;-71
2022/11/30 04:06:10;;;;;;;71.82;50.95;;;6.60;99.90;;;;;;5129409;27;20063;-71
2022/11/30 04:08:37;;;;;;;66.40;49.85;;;6.70;99.90;;;;;;5120657;27;20043;-77
2022/11/30 04:11:04;;;;;;;74.70;53.30;;;6.60;99.90;;;;;;5117211;27;20111;-77
2022/11/30 04:13:31;;;;;;;68.10;50.13;;;6.70;99.90;;;;;;5103066;27;21021;-78
2022/11/30 04:15:57;;;;;;;77.85;54.10;;;6.70;99.90;;;;;;5102344;27;21585;-77
2022/11/30 04:18:24;;;;;;;74.82;53.92;;;6.70;99.90;;;;;;5123785;27;20050;-77
2022/11/30 04:20:51;;;;;;;69.07;51.40;;;6.70;99.90;;;;;;5122266;27;20106;-77
2022/11/30 04:23:18;;;;;;;70.15;52.10;;;6.70;99.90;;;;;;5104839;27;20047;-77
2022/11/30 04:25:43;;;;;;;68.55;51.05;;;6.70;99.90;;;;;;5121814;27;20058;-77
2022/11/30 04:28:10;;;;;;;65.68;49.55;;;6.70;99.90;;;;;;5105537;27;20489;-77
2022/11/30 04:30:36;;;;;;;71.68;50.97;;;6.70;99.90;;;;;;5119771;27;20051;-77
2022/11/30 04:33:03;;;;;;;65.60;48.33;;;6.70;99.90;;;;;;5104725;27;20381;-77
2022/11/30 04:35:29;;;;;;;64.30;48.13;;;6.70;99.90;;;;;;5101889;27;20446;-77
2022/11/30 04:37:55;;;;;;;63.55;48.30;;;6.70;99.90;;;;;;5121562;27;20066;-77
2022/11/30 04:40:21;;;;;;;68.47;47.83;;;6.70;99.90;;;;;;5146723;27;20051;-77
2022/11/30 04:42:46;;;;;;;62.22;47.80;;;6.70;99.90;;;;;;5118905;27;20050;-77
2022/11/30 04:45:13;;;;;;;67.32;49.92;;;6.70;99.90;;;;;;5100226;27;20046;-77
2022/11/30 04:47:39;;;;;;;62.53;47.13;;;6.70;99.90;;;;;;5101463;27;20043;-78
2022/11/30 04:50:06;;;;;;;63.35;47.08;;;6.70;99.90;;;;;;5101792;27;20051;-77
2022/11/30 04:52:32;;;;;;;72.15;48.55;;;6.70;99.90;;;;;;5084147;27;20038;-77
2022/11/30 04:55:03;;;;;;;62.50;45.55;;;6.70;99.90;;;;;;5086075;27;20044;-77
2022/11/30 04:57:28;;;;;;;;;;;6.70;99.90;;;;;;5147206;27;20441;-77
2022/11/30 04:59:54;;;;;;;64.47;45.60;;;6.70;99.90;;;;;;5086683;27;19925;-77
2022/11/30 05:02:20;;;;;;;61.50;44.40;;;6.70;99.90;;;;;;5114067;27;20098;-77
2022/11/30 05:04:49;;;;;;;59.90;44.80;;;6.70;99.90;;;;;;5107395;27;20050;-77
2022/11/30 05:07:15;;;;;;;66.72;44.80;;;6.70;99.90;;;;;;5121145;27;20170;-77
2022/11/30 05:09:41;;;;;;;63.88;44.65;;;6.70;99.90;;;;;;5101885;27;20460;-77
2022/11/30 05:12:06;;;;;;;62.60;44.03;;;6.70;99.90;;;;;;5117632;27;20756;-78
2022/11/30 05:14:32;;;;;;;60.50;44.50;;;6.70;99.90;;;;;;5116017;27;20102;-77
2022/11/30 05:17:01;;;;;;;63.47;44.20;;;6.70;99.90;;;;;;5118500;27;20061;-78
2022/11/30 05:19:26;;;;;;;60.30;43.42;;;6.70;99.90;;;;;;5115152;27;20044;-77
2022/11/30 05:21:52;;;;;;;60.63;43.08;;;6.70;99.90;;;;;;5098503;27;20047;-77
2022/11/30 05:24:18;;;;;;;64.20;45.30;;;6.70;99.90;;;;;;5117998;27;20128;-78
2022/11/30 05:26:44;;;;;;;61.17;42.00;;;6.70;99.90;;;;;;5142454;27;20086;-77
2022/11/30 05:29:09;;;;;;;73.97;47.70;;;6.70;99.90;;;;;;5118944;27;20067;-77
2022/11/30 05:31:38;;;;;;;62.38;43.63;;;6.70;99.90;;;;;;5102647;27;20081;-77
2022/11/30 05:34:04;;;;;;;76.45;46.53;;;6.70;99.90;;;;;;5112443;27;20099;-77
2022/11/30 05:36:30;;;;;;;69.88;45.35;;;6.70;99.90;;;;;;5100832;27;20501;-77
2022/11/30 05:38:55;;;;;;;60.03;40.13;;;6.80;99.90;;;;;;5095963;27;20104;-77
2022/11/30 05:41:21;;;;;;;63.78;42.97;;;6.70;99.90;;;;;;5099302;27;20066;-77
2022/11/30 05:43:47;;;;;;;62.15;42.17;;;6.70;99.90;;;;;;5118925;27;20117;-77
2022/11/30 05:46:13;;;;;;;62.65;42.80;;;6.70;99.90;;;;;;5116049;27;20053;-77
2022/11/30 05:48:38;;;;;;;61.03;42.03;;;6.70;99.90;;;;;;5120061;27;20054;-77
2022/11/30 05:51:10;;;;;;;59.80;43.03;;;6.70;99.90;;;;;;5144857;27;20053;-76
2022/11/30 05:53:37;;;;;;;63.28;43.10;;;6.70;99.90;;;;;;5117198;27;20039;-76
2022/11/30 05:56:08;;;;;;;67.00;43.00;;;6.70;99.90;;;;;;5129430;27;20166;-76
2022/11/30 05:58:34;;;;;;;61.97;41.30;;;6.70;99.90;;;;;;5145989;27;20047;-76
2022/11/30 06:01:00;;;;;;;61.45;40.97;;;6.70;99.90;;;;;;5095892;27;20658;-79
2022/11/30 06:03:31;;;;;;;59.35;38.35;;;6.70;99.90;;;;;;5101040;27;20076;-76
2022/11/30 06:05:57;;;;;;;63.20;40.30;;;6.70;99.90;;;;;;5104989;27;20096;-77
2022/11/30 06:08:23;;;;;;;68.00;41.20;;;6.70;99.90;;;;;;5115808;27;20039;-77
2022/11/30 06:10:49;;;;;;;63.45;40.35;;;6.70;99.90;;;;;;5115247;27;20560;-76
2022/11/30 06:13:15;;;;;;;63.50;40.97;;;6.60;99.90;;;;;;5100526;27;20043;-76
2022/11/30 06:15:41;;;;;;;66.40;41.05;;;6.60;99.90;;;;;;5147278;27;20095;-77
2022/11/30 06:18:10;;;;;;;60.05;39.00;;;6.70;99.90;;;;;;5116545;27;20473;-77
2022/11/30 06:20:35;;;;;;;65.82;42.65;;;6.70;99.90;;;;;;5100884;27;20300;-77
2022/11/30 06:23:01;;;;;;;67.03;40.88;;;6.60;99.90;;;;;;5099638;27;20774;-77
2022/11/30 06:25:27;;;;;;;56.58;37.95;;;6.70;99.90;;;;;;5077249;27;20630;-77
2022/11/30 06:27:53;;;;;;;60.72;38.63;;;6.70;99.90;;;;;;5116106;27;20043;-77
2022/11/30 06:30:19;;;;;;;60.40;37.78;;;6.70;99.90;;;;;;5099016;27;20053;-77
2022/11/30 06:32:47;;;;;;;59.35;38.65;;;6.70;99.90;;;;;;5112353;27;20442;-77
2022/11/30 06:35:13;;;;;;;51.20;35.42;;;6.70;99.90;;;;;;5097807;27;20135;-77
2022/11/30 06:37:39;;;;;;;60.40;39.78;;;6.70;99.90;;;;;;5144552;27;20047;-77
2022/11/30 06:40:07;;;;;;;58.03;37.28;;;6.70;99.90;;;;;;5115794;27;20669;-77
2022/11/30 06:42:33;;;;;;;58.42;39.72;;;6.70;99.90;;;;;;5114699;27;20139;-76
2022/11/30 06:44:59;;;;;;;65.03;39.67;;;6.70;99.90;;;;;;5109315;27;20092;-73
2022/11/30 06:47:26;;;;;;;60.67;38.47;;;6.70;99.90;;;;;;5112935;27;20059;-71
2022/11/30 06:49:52;;;;;;;63.78;40.00;;;6.70;99.90;;;;;;5113756;27;20112;-72
2022/11/30 06:52:18;;;;;;;61.40;38.38;;;6.70;99.90;;;;;;5104234;27;20054;-72
2022/11/30 06:54:44;;;;;;;63.17;39.72;;;6.70;99.90;;;;;;5098239;27;20505;-72
2022/11/30 06:57:10;;;;;;;63.28;38.95;;;6.60;99.90;;;;;;5098755;27;20096;-72
2022/11/30 06:59:41;;;;;;;69.72;42.05;;;6.60;99.90;;;;;;5100034;27;20089;-72
2022/11/30 07:02:10;;;;;;;77.35;45.08;;;6.60;99.90;;;;;;5086833;27;20079;-72
2022/11/30 07:04:36;;;;;;;83.60;46.63;;;6.60;99.90;;;;;;5098453;27;20126;-72
2022/11/30 07:07:02;;;;;;;76.32;45.67;;;6.60;99.90;;;;;;5112343;27;20058;-71
2022/11/30 07:09:31;;;;;;;79.22;46.15;;;6.60;99.90;;;;;;5109854;27;20614;-72
2022/11/30 07:11:57;;;;;;;68.90;40.25;;;6.60;99.90;;;;;;5099855;27;20494;-72
2022/11/30 07:14:25;;;;;;;66.18;40.45;;;6.60;99.90;;;;;;5099225;27;20055;-77
2022/11/30 07:16:51;;;;;;;71.00;43.15;;;6.60;99.90;;;;;;5098427;27;20518;-72
2022/11/30 07:19:20;;;;;;;62.25;39.67;;;6.60;99.90;;;;;;5100095;27;20050;-72
2022/11/30 07:21:46;;;;;;;54.63;36.78;;;6.60;99.90;;;;;;5097186;27;20039;-71
2022/11/30 07:26:58;;;;;;;47.88;32.72;;;6.50;99.90;;;;;;5117243;27;20047;-78
2022/11/30 07:29:24;;;;;;;46.42;33.35;;;6.60;99.90;;;;;;5112058;27;20113;-77
2022/11/30 07:31:53;;;;;;;44.65;32.40;;;6.60;99.90;;;;;;5116249;27;20115;-78
2022/11/30 07:34:20;;;;;;;45.10;32.37;;;6.60;99.90;;;;;;5113287;27;20538;-77
2022/11/30 07:36:46;;;;;;;40.55;28.52;;;6.60;99.90;;;;;;5097006;27;20047;-77
2022/11/30 07:39:13;;;;;;;40.33;29.60;;;6.50;99.90;;;;;;5111966;27;20489;-76
2022/11/30 07:41:40;;;;;;;37.63;28.67;;;6.50;99.90;;;;;;5114636;27;20494;-77
2022/11/30 07:44:07;;;;;;;40.10;29.17;;;6.60;99.90;;;;;;5121290;27;20051;-77
2022/11/30 07:46:34;;;;;;;38.33;28.05;;;6.60;99.90;;;;;;5114600;27;20595;-77
2022/11/30 07:49:02;;;;;;;37.63;28.50;;;6.50;99.90;;;;;;5120899;27;20190;-78
2022/11/30 07:51:28;;;;;;;36.83;27.92;;;6.50;99.90;;;;;;5103529;27;20066;-77
2022/11/30 07:53:55;;;;;;;34.10;26.63;;;6.50;99.90;;;;;;5100548;27;20094;-78
2022/11/30 07:56:21;;;;;;;35.00;26.88;;;6.50;99.90;;;;;;5087453;27;20051;-78
2022/11/30 07:58:49;;;;;;;32.80;26.38;;;6.50;99.90;;;;;;5085281;27;20513;-78
2022/11/30 08:01:18;;;;;;;34.08;26.58;;;6.40;99.90;;;;;;5119390;27;20456;-78
2022/11/30 08:03:44;;;;;;;32.35;25.98;;;6.50;99.90;;;;;;5103206;27;20433;-78
2022/11/30 08:06:18;;;;;;;31.08;24.67;;;6.40;99.90;;;;;;5120382;27;20039;-78
2022/11/30 08:08:45;;;;;;;29.73;24.50;;;6.40;99.90;;;;;;5099663;27;20676;-77
2022/11/30 08:11:13;;;;;;;31.08;24.40;;;6.40;99.90;;;;;;5099216;27;20118;-78
2022/11/30 08:13:39;;;;;;;30.20;25.02;;;6.40;99.90;;;;;;5117155;27;22076;-78
2022/11/30 08:16:11;;;;;;;32.42;25.27;;;6.40;99.90;;;;;;5117126;27;20047;-77
2022/11/30 08:18:38;;;;;;;31.45;26.50;;;6.40;99.90;;;;;;5118246;27;20078;-78
2022/11/30 08:21:06;;;;;;;29.63;25.08;;;6.40;99.90;;;;;;5116799;27;20051;-78
2022/11/30 08:23:35;;;;;;;29.85;25.00;;;6.40;99.90;;;;;;5114899;27;20051;-78
2022/11/30 08:26:07;;;;;;;31.58;25.73;;;6.40;99.90;;;;;;5126535;27;20047;-78
2022/11/30 08:28:36;;;;;;;28.98;24.92;;;6.40;99.90;;;;;;5098647;27;20339;-78
2022/11/30 08:31:10;;;;;;;30.50;25.90;;;6.40;99.90;;;;;;5098518;27;20103;-81
2022/11/30 08:33:36;;;;;;;32.33;26.42;;;6.40;99.90;;;;;;5116929;27;20150;-81
2022/11/30 08:36:11;;;;;;;30.13;25.27;;;6.40;99.90;;;;;;5101686;27;20675;-80
2022/11/30 08:38:38;;;;;;;29.58;24.30;;;6.40;99.90;;;;;;5117002;27;20062;-81
2022/11/30 08:41:05;;;;;;;31.48;25.45;;;6.40;99.90;;;;;;5119095;27;20035;-81
2022/11/30 08:43:31;;;;;;;33.70;26.63;;;6.40;99.90;;;;;;5119115;27;20092;-81
2022/11/30 08:45:57;;;;;;;35.03;28.27;;;6.40;99.90;;;;;;5112402;27;20050;-81
2022/11/30 08:48:23;;;;;;;33.90;26.95;;;6.40;99.90;;;;;;5102397;27;20078;-80
2022/11/30 08:50:50;;;;;;;30.50;25.63;;;6.40;99.90;;;;;;5102648;27;20489;-81
2022/11/30 08:53:16;;;;;;;29.15;25.13;;;6.40;99.90;;;;;;5104682;27;21032;-81
2022/11/30 08:55:42;;;;;;;32.95;26.00;;;6.40;99.90;;;;;;5099972;27;20460;-81
2022/11/30 08:58:07;;;;;;;30.95;26.42;;;6.40;99.90;;;;;;5149195;27;20058;-80
2022/11/30 09:00:33;;;;;;;33.97;27.08;;;6.40;99.90;;;;;;5146061;27;20044;-81
2022/11/30 09:02:59;;;;;;;30.52;26.02;;;6.30;99.90;;;;;;5103819;27;20047;-81
2022/11/30 09:05:24;;;;;;;31.25;27.83;;;6.50;99.90;;;;;;5085113;27;20824;-81
2022/11/30 09:07:50;;;;;;;32.25;26.48;;;6.40;99.90;;;;;;5096510;27;20043;-81
2022/11/30 09:10:16;;;;;;;30.33;26.80;;;6.50;99.90;;;;;;5102357;27;20051;-81
2022/11/30 09:12:42;;;;;;;29.60;25.73;;;6.40;99.90;;;;;;5081991;27;20047;-82
2022/11/30 09:15:09;;;;;;;25.52;22.77;;;6.40;99.90;;;;;;5129669;27;20122;-81
2022/11/30 09:17:35;;;;;;;25.95;23.13;;;6.50;99.90;;;;;;5117427;27;20058;-81
2022/11/30 09:20:01;;;;;;;25.08;22.50;;;6.40;99.90;;;;;;5085459;27;20046;-82
2022/11/30 09:22:27;;;;;;;24.63;21.98;;;6.40;99.90;;;;;;5100628;27;20089;-81
2022/11/30 09:24:53;;;;;;;25.92;23.23;;;6.40;99.90;;;;;;5147763;27;20035;-82
2022/11/30 09:27:20;;;;;;;24.40;21.80;;;6.30;99.90;;;;;;5121353;27;20054;-82
2022/11/30 09:29:45;;;;;;;25.70;22.90;;;6.40;99.90;;;;;;5101038;27;20043;-82
2022/11/30 09:32:11;;;;;;;23.25;21.02;;;6.40;99.90;;;;;;5084167;27;20049;-81
2022/11/30 09:34:37;;;;;;;24.65;22.10;;;6.40;99.90;;;;;;5101065;27;20523;-80
2022/11/30 09:37:03;;;;;;;23.52;21.05;;;6.40;99.90;;;;;;5068073;27;20047;-81
2022/11/30 09:39:35;;;;;;;23.23;21.02;;;6.40;99.90;;;;;;5118056;27;20080;-82
2022/11/30 09:42:36;;;;;;;23.48;21.17;;;6.50;99.90;;;;;;5128349;27;20592;-81
2022/11/30 09:45:05;;;;;;;22.65;20.40;;;6.40;99.90;;;;;;5106512;27;20067;-79
2022/11/30 09:47:40;;;;;;;23.90;21.48;;;6.40;99.90;;;;;;5118860;27;20047;-79
2022/11/30 09:50:36;;;;;;;24.33;21.88;;;6.40;99.90;;;;;;5102011;27;20051;-80
2022/11/30 09:53:06;;;;;;;23.52;21.20;;;6.50;99.90;;;;;;5142992;27;20111;-79
2022/11/30 09:55:41;;;;;;;24.08;21.73;;;6.50;99.90;;;;;;5114133;27;20051;-80
2022/11/30 09:58:23;;;;;;;22.45;20.25;;;6.50;99.90;;;;;;5086247;27;20042;-80
2022/11/30 10:00:48;;;;;;;22.98;20.60;;;6.60;99.90;;;;;;5115194;27;20642;-81
2022/11/30 10:03:22;;;;;;;23.38;21.15;;;6.60;99.90;;;;;;5102780;27;20043;-82
2022/11/30 10:06:05;;;;;;;25.08;22.42;;;6.60;99.90;;;;;;5101031;27;20123;-81
2022/11/30 10:09:09;;;;;;;24.65;22.15;;;6.60;99.90;;;;;;5115315;27;20504;-81
2022/11/30 10:11:47;;;;;;;26.90;24.10;;;6.60;99.90;;;;;;5104448;27;20108;-81
2022/11/30 10:14:22;;;;;;;25.40;22.80;;;6.60;99.90;;;;;;5118898;27;20139;-80
2022/11/30 10:17:00;;;;;;;27.50;24.73;;;6.60;99.90;;;;;;5119177;27;20485;-81
2022/11/30 10:19:48;;;;;;;28.08;25.15;;;6.60;99.90;;;;;;5118823;27;20122;-81
2022/11/30 10:22:40;;;;;;;29.63;26.38;;;6.60;99.90;;;;;;5120114;27;20082;-81
2022/11/30 10:25:13;;;;;;;29.98;26.67;;;6.60;99.90;;;;;;5105375;27;20082;-80
2022/11/30 10:27:53;;;;;;;30.65;27.42;;;6.60;99.90;;;;;;5097538;27;20645;-80
2022/11/30 10:30:24;;;;;;;32.67;28.77;;;6.60;99.90;;;;;;5118232;27;20050;-80
2022/11/30 10:32:57;;;;;;;33.33;29.73;;;6.60;99.90;;;;;;5100971;27;20051;-80
2022/11/30 10:35:43;;;;;;;33.03;29.45;;;6.60;99.90;;;;;;5116912;27;20497;-79
2022/11/30 10:38:22;;;;;;;36.08;30.70;;;6.70;99.90;;;;;;5116328;27;20042;-80
2022/11/30 10:41:21;;;;;;;34.58;30.88;;;6.60;99.90;;;;;;5113289;27;20431;-80
2022/11/30 10:44:01;;;;;;;34.30;30.80;;;6.60;99.90;;;;;;5103671;27;20477;-81
2022/11/30 10:46:42;;;;;;;34.47;30.70;;;6.60;99.90;;;;;;5115750;27;20059;-80
2022/11/30 10:49:14;;;;;;;33.70;29.95;;;6.60;99.90;;;;;;5118783;27;20055;-80
2022/11/30 10:51:43;;;;;;;37.17;31.30;;;6.60;99.90;;;;;;5115807;27;20043;-81
2022/11/30 10:54:19;;;;;;;35.20;31.30;;;6.60;99.90;;;;;;5116634;27;20095;-81
2022/11/30 10:56:45;;;;;;;34.78;30.50;;;6.60;99.90;;;;;;5100557;27;20118;-81
2022/11/30 10:59:24;;;;;;;32.25;28.75;;;6.70;99.90;;;;;;5100411;27;20043;-80
2022/11/30 11:01:53;;;;;;;33.22;29.67;;;6.70;99.90;;;;;;5117768;27;20082;-81
2022/11/30 11:04:22;;;;;;;34.20;30.63;;;6.70;99.90;;;;;;5101207;27;20128;-82
2022/11/30 11:06:54;;;;;;;34.42;30.60;;;6.70;99.90;;;;;;5116578;27;20098;-81
2022/11/30 11:09:28;;;;;;;32.20;28.90;;;6.80;99.90;;;;;;5083661;27;20051;-81
2022/11/30 11:12:05;;;;;;;33.00;29.50;;;6.80;99.90;;;;;;5100715;27;20142;-81
2022/11/30 11:14:32;;;;;;;32.72;29.23;;;6.80;99.90;;;;;;5121689;27;20051;-82
2022/11/30 11:17:03;;;;;;;32.03;28.70;;;6.80;99.90;;;;;;5124955;27;20043;-79
2022/11/30 11:19:37;;;;;;;38.05;33.95;;;6.90;99.90;;;;;;5120338;27;20056;-80
2022/11/30 11:22:06;;;;;;;31.88;28.52;;;6.80;99.90;;;;;;5124077;27;20046;-80
2022/11/30 11:24:33;;;;;;;31.10;27.80;;;6.80;99.90;;;;;;5117683;27;20058;-82
2022/11/30 11:26:59;;;;;;;29.50;26.50;;;6.90;99.90;;;;;;5105697;27;20130;-81
2022/11/30 11:29:32;;;;;;;30.77;27.58;;;6.80;99.90;;;;;;5086069;27;20640;-82
2022/11/30 11:32:20;;;;;;;30.90;27.63;;;6.80;99.90;;;;;;5104528;27;20126;-82
2022/11/30 11:34:46;;;;;;;31.02;27.70;;;6.80;99.90;;;;;;5149491;27;20043;-82
2022/11/30 11:37:36;;;;;;;31.80;28.50;;;6.90;99.90;;;;;;5119948;27;20672;-79
2022/11/30 11:40:14;;;;;;;29.58;26.52;;;6.90;99.90;;;;;;5121033;27;20157;-81
2022/11/30 11:42:52;;;;;;;32.10;28.67;;;6.80;99.90;;;;;;5119634;27;20054;-80
2022/11/30 11:45:27;;;;;;;31.95;28.67;;;6.90;99.90;;;;;;5120481;27;20066;-79
2022/11/30 11:47:59;;;;;;;32.83;29.48;;;6.90;99.90;;;;;;5105535;27;20051;-79
2022/11/30 11:50:28;;;;;;;33.25;29.88;;;6.80;99.90;;;;;;5103816;27;20049;-79
2022/11/30 11:53:21;;;;;;;33.58;30.02;;;6.90;99.90;;;;;;5123029;27;20732;-80
2022/11/30 11:55:52;;;;;;;36.17;32.38;;;6.80;99.90;;;;;;5115819;27;20065;-80
2022/11/30 11:58:30;;;;;;;35.15;31.35;;;6.90;99.90;;;;;;5106312;27;20285;-81
2022/11/30 12:00:57;;;;;;;35.63;31.63;;;6.90;99.90;;;;;;5120382;27;20059;-80
2022/11/30 12:03:36;;;;;;;37.45;33.25;;;6.90;99.90;;;;;;5102809;27;20130;-80
2022/11/30 12:06:09;;;;;;;37.80;32.80;;;6.90;99.90;;;;;;5121794;27;20063;-80
2022/11/30 12:08:46;;;;;;;38.95;33.58;;;6.90;99.90;;;;;;5120727;27;20293;-80
2022/11/30 12:11:28;;;;;;;37.10;33.08;;;6.90;99.90;;;;;;5116944;27;20498;-79
2022/11/30 12:13:54;;;;;;;39.45;34.95;;;6.90;99.90;;;;;;5107572;27;20047;-80
2022/11/30 12:16:39;;;;;;;40.85;35.40;;;6.80;99.90;;;;;;5081252;27;20058;-80
2022/11/30 12:19:29;;;;;;;42.13;37.40;;;6.80;99.90;;;;;;5103861;27;20051;-80
2022/11/30 12:22:04;;;;;;;;;;;6.80;99.90;;;;;;5120554;27;20746;-80
2022/11/30 12:24:45;;;;;;;40.10;35.63;;;6.80;99.90;;;;;;5100743;27;21792;-80
2022/11/30 12:27:35;;;;;;;41.38;36.92;;;6.80;99.90;;;;;;5105495;27;20070;-80
2022/11/30 12:30:22;;;;;;;39.80;35.45;;;6.80;99.90;;;;;;5122489;27;20081;-80
2022/11/30 12:33:05;;;;;;;39.33;34.80;;;6.80;99.90;;;;;;5117573;27;20430;-80
2022/11/30 12:35:50;;;;;;;39.90;35.58;;;6.80;99.90;;;;;;5118946;27;20051;-80
2022/11/30 12:38:20;;;;;;;38.95;33.65;;;6.80;99.90;;;;;;5119004;27;20536;-81
2022/11/30 12:41:14;;;;;;;39.40;35.05;;;6.90;99.90;;;;;;5117261;27;20452;-81
2022/11/30 12:43:59;;;;;;;38.13;33.85;;;6.80;99.90;;;;;;5101374;27;20100;-79
2022/11/30 12:46:35;;;;;;;38.30;33.25;;;6.80;99.90;;;;;;5117670;27;20039;-80
2022/11/30 12:49:10;;;;;;;35.13;31.38;;;6.80;99.90;;;;;;5104124;27;20051;-79
2022/11/30 12:51:44;;;;;;;36.53;32.58;;;6.90;99.90;;;;;;5116840;27;20051;-80
2022/11/30 12:54:16;;;;;;;37.22;32.17;;;6.90;99.90;;;;;;5120288;27;20122;-80
2022/11/30 12:57:16;;;;;;;35.63;31.73;;;6.90;99.90;;;;;;5128955;27;20475;-79